Time;durP1;ratioP1;P1;durP2;ratioP2;P2;SDS_P1;SDS_P2;PMS_P1;PMS_P2;Temp;Humidity;BMP_temperature;BMP_pressure;BME280_temperature;BME280_humidity;BME280_pressure;Samples;Min_cycle;Max_cycle;Signal;HPM_P1;HPM_P2
2021/11/10 00:01:29;;;;;;;26.85;13.73;;;;;;;;;;5050335;28;20021;-63
2021/11/10 00:03:55;;;;;;;27.98;13.55;;;;;;;;;;5051852;28;20125;-63
2021/11/10 00:06:21;;;;;;;25.15;13.57;;;;;;;;;;5052656;28;20036;-63
2021/11/10 00:08:47;;;;;;;24.50;12.80;;;;;;;;;;5049329;28;20055;-63
2021/11/10 00:11:13;;;;;;;28.42;13.63;;;;;;;;;;5050256;28;20017;-63
2021/11/10 00:13:39;;;;;;;27.38;14.63;;;;;;;;;;5050307;28;20021;-63
2021/11/10 00:16:05;;;;;;;29.73;14.70;;;;;;;;;;5050003;28;20545;-63
2021/11/10 00:18:31;;;;;;;23.25;12.35;;;;;;;;;;5053379;28;20094;-63
2021/11/10 00:20:58;;;;;;;21.00;12.20;;;;;;;;;;5049928;28;20025;-63
2021/11/10 00:23:24;;;;;;;22.77;11.52;;;;;;;;;;5049782;28;20103;-62
2021/11/10 00:25:50;;;;;;;26.77;10.98;;;;;;;;;;5049860;28;20511;-63
2021/11/10 00:28:16;;;;;;;21.38;11.23;;;;;;;;;;5049697;28;20397;-63
2021/11/10 00:30:42;;;;;;;21.52;11.77;;;;;;;;;;5052102;28;20116;-63
2021/11/10 00:33:08;;;;;;;30.13;12.73;;;;;;;;;;5050993;28;20529;-62
2021/11/10 00:35:34;;;;;;;26.52;12.57;;;;;;;;;;5047949;28;20037;-64
2021/11/10 00:38:00;;;;;;;26.30;10.60;;;;;;;;;;5049638;28;20017;-63
2021/11/10 00:40:26;;;;;;;24.48;12.65;;;;;;;;;;5049557;28;20044;-63
2021/11/10 00:42:52;;;;;;;29.58;14.80;;;;;;;;;;5051393;28;20021;-63
2021/11/10 00:45:18;;;;;;;31.05;14.93;;;;;;;;;;5051048;28;20029;-63
2021/11/10 00:47:44;;;;;;;25.73;13.90;;;;;;;;;;5049509;28;20135;-63
2021/11/10 00:50:10;;;;;;;28.10;14.27;;;;;;;;;;5048979;28;20029;-63
2021/11/10 00:52:36;;;;;;;34.42;14.48;;;;;;;;;;5049608;28;20025;-63
2021/11/10 00:55:03;;;;;;;33.47;14.35;;;;;;;;;;5049466;28;20519;-63
2021/11/10 00:57:29;;;;;;;24.70;13.07;;;;;;;;;;5052817;28;20389;-63
2021/11/10 00:59:55;;;;;;;24.30;12.75;;;;;;;;;;5047979;28;20119;-63
2021/11/10 01:02:21;;;;;;;28.10;13.68;;;;;;;;;;5049333;28;20032;-63
2021/11/10 01:04:47;;;;;;;29.27;14.25;;;;;;;;;;5048420;28;20346;-63
2021/11/10 01:07:13;;;;;;;31.50;14.32;;;;;;;;;;5049256;28;20029;-63
2021/11/10 01:09:44;;;;;;;30.67;12.85;;;;;;;;;;5051978;28;20079;-63
2021/11/10 01:12:11;;;;;;;26.08;12.13;;;;;;;;;;5051821;28;20035;-63
2021/11/10 01:14:37;;;;;;;24.52;11.80;;;;;;;;;;5049055;28;20041;-63
2021/11/10 01:17:03;;;;;;;25.23;12.48;;;;;;;;;;5048274;28;20451;-63
2021/11/10 01:19:29;;;;;;;22.67;11.18;;;;;;;;;;5048914;28;20526;-64
2021/11/10 01:21:55;;;;;;;24.75;12.85;;;;;;;;;;5050269;28;20425;-63
2021/11/10 01:24:21;;;;;;;28.20;13.65;;;;;;;;;;5051272;28;20052;-63
2021/11/10 01:26:47;;;;;;;28.05;13.57;;;;;;;;;;5048863;28;20053;-63
2021/11/10 01:29:13;;;;;;;27.20;12.80;;;;;;;;;;5048420;28;20167;-64
2021/11/10 01:31:39;;;;;;;27.17;12.73;;;;;;;;;;5048431;28;20028;-63
2021/11/10 01:34:08;;;;;;;28.77;13.73;;;;;;;;;;5048121;28;20048;-63
2021/11/10 01:36:35;;;;;;;21.98;11.38;;;;;;;;;;5052585;28;20031;-63
2021/11/10 01:39:01;;;;;;;20.13;10.93;;;;;;;;;;5048392;28;20040;-63
2021/11/10 01:41:27;;;;;;;23.20;10.45;;;;;;;;;;5048133;28;20040;-63
2021/11/10 01:43:54;;;;;;;21.17;9.23;;;;;;;;;;5048546;28;20061;-63
2021/11/10 01:46:20;;;;;;;20.83;10.20;;;;;;;;;;5048950;28;20087;-63
2021/11/10 01:48:46;;;;;;;24.75;11.35;;;;;;;;;;5050623;28;20032;-63
2021/11/10 01:51:12;;;;;;;24.35;10.95;;;;;;;;;;5049336;28;20092;-63
2021/11/10 01:53:38;;;;;;;22.17;10.63;;;;;;;;;;5048632;28;20029;-63
2021/11/10 01:56:04;;;;;;;20.55;10.75;;;;;;;;;;5047890;28;20382;-63
2021/11/10 01:58:30;;;;;;;19.30;10.38;;;;;;;;;;5048480;28;20017;-62
2021/11/10 02:00:56;;;;;;;19.77;10.13;;;;;;;;;;5049242;28;20030;-62
2021/11/10 02:03:23;;;;;;;17.30;9.38;;;;;;;;;;5049935;28;20453;-62
2021/11/10 02:05:49;;;;;;;21.13;9.68;;;;;;;;;;5048349;28;20060;-63
2021/11/10 02:08:15;;;;;;;19.98;9.63;;;;;;;;;;5048243;28;20025;-63
2021/11/10 02:10:42;;;;;;;23.73;9.63;;;;;;;;;;5047753;28;20083;-63
2021/11/10 02:13:08;;;;;;;20.13;10.45;;;;;;;;;;5048168;28;20032;-63
2021/11/10 02:15:34;;;;;;;21.13;9.43;;;;;;;;;;5051397;28;20342;-63
2021/11/10 02:18:04;;;;;;;19.70;10.15;;;;;;;;;;5048097;28;20064;-63
2021/11/10 02:20:31;;;;;;;20.77;8.93;;;;;;;;;;5047821;28;20078;-63
2021/11/10 02:22:58;;;;;;;17.85;8.57;;;;;;;;;;5047506;28;20020;-63
2021/11/10 02:25:27;;;;;;;23.63;10.10;;;;;;;;;;5048152;28;20033;-63
2021/11/10 02:27:53;;;;;;;17.23;8.73;;;;;;;;;;5049788;28;20484;-63
2021/11/10 02:30:19;;;;;;;20.80;8.95;;;;;;;;;;5049082;28;20025;-63
2021/11/10 02:32:47;;;;;;;15.98;8.20;;;;;;;;;;5047478;28;20021;-64
2021/11/10 02:35:16;;;;;;;17.33;8.38;;;;;;;;;;5047940;28;20041;-63
2021/11/10 02:37:43;;;;;;;18.92;8.48;;;;;;;;;;5047876;28;20045;-63
2021/11/10 02:40:09;;;;;;;14.77;7.75;;;;;;;;;;5047441;28;20025;-63
2021/11/10 02:42:35;;;;;;;24.08;9.85;;;;;;;;;;5051055;28;20021;-63
2021/11/10 02:45:01;;;;;;;21.83;10.15;;;;;;;;;;5049789;28;20455;-63
2021/11/10 02:47:27;;;;;;;18.05;9.20;;;;;;;;;;5047198;28;20029;-63
2021/11/10 02:49:53;;;;;;;20.58;8.60;;;;;;;;;;5047669;28;20035;-63
2021/11/10 02:52:20;;;;;;;26.70;9.95;;;;;;;;;;5050076;28;20014;-63
2021/11/10 02:54:48;;;;;;;20.48;8.02;;;;;;;;;;5054131;28;20041;-63
2021/11/10 02:57:14;;;;;;;18.58;7.97;;;;;;;;;;5052592;28;20029;-63
2021/11/10 02:59:40;;;;;;;23.00;7.97;;;;;;;;;;5051183;28;20412;-63
2021/11/10 03:02:07;;;;;;;16.35;8.23;;;;;;;;;;5051407;28;20024;-63
2021/11/10 03:04:34;;;;;;;16.65;7.40;;;;;;;;;;5050742;28;20021;-63
2021/11/10 03:07:00;;;;;;;18.27;8.23;;;;;;;;;;5052948;28;20021;-63
2021/11/10 03:09:28;;;;;;;16.92;7.07;;;;;;;;;;5054668;28;20017;-63
2021/11/10 03:11:56;;;;;;;19.90;7.40;;;;;;;;;;5051122;28;20017;-63
2021/11/10 03:14:22;;;;;;;20.38;7.30;;;;;;;;;;5051293;28;20760;-63
2021/11/10 03:16:49;;;;;;;14.02;6.70;;;;;;;;;;5050989;28;20031;-63
2021/11/10 03:19:15;;;;;;;15.60;6.57;;;;;;;;;;5051466;28;20025;-63
2021/11/10 03:21:41;;;;;;;16.52;7.95;;;;;;;;;;5052604;28;20477;-64
2021/11/10 03:24:07;;;;;;;17.27;7.40;;;;;;;;;;5053035;28;20576;-68
2021/11/10 03:26:34;;;;;;;14.45;6.70;;;;;;;;;;5051126;28;20032;-68
2021/11/10 03:29:03;;;;;;;17.00;7.20;;;;;;;;;;5051125;28;20071;-69
2021/11/10 03:31:33;;;;;;;14.75;7.57;;;;;;;;;;5050654;28;20465;-68
2021/11/10 03:34:00;;;;;;;15.30;6.30;;;;;;;;;;5051431;28;20041;-69
2021/11/10 03:36:26;;;;;;;20.10;9.07;;;;;;;;;;5053412;28;20055;-68
2021/11/10 03:38:52;;;;;;;22.05;10.10;;;;;;;;;;5050946;28;20464;-68
2021/11/10 03:41:18;;;;;;;18.85;8.07;;;;;;;;;;5050912;28;20029;-69
2021/11/10 03:43:44;;;;;;;18.23;8.35;;;;;;;;;;5050762;28;20103;-69
2021/11/10 03:46:10;;;;;;;17.25;7.93;;;;;;;;;;5052066;28;20035;-69
2021/11/10 03:48:36;;;;;;;16.23;7.53;;;;;;;;;;5053173;28;20029;-69
2021/11/10 03:51:02;;;;;;;14.95;7.28;;;;;;;;;;5052699;28;20032;-68
2021/11/10 03:53:28;;;;;;;18.52;7.95;;;;;;;;;;5050619;28;20039;-68
2021/11/10 03:55:54;;;;;;;14.55;6.80;;;;;;;;;;5050593;28;20037;-68
2021/11/10 03:58:21;;;;;;;17.40;6.50;;;;;;;;;;5050366;28;20075;-68
2021/11/10 04:00:47;;;;;;;15.63;6.55;;;;;;;;;;5051873;28;20048;-68
2021/11/10 04:03:13;;;;;;;11.43;5.97;;;;;;;;;;5051215;28;20025;-68
2021/11/10 04:05:42;;;;;;;16.65;6.97;;;;;;;;;;5050369;28;20040;-69
2021/11/10 04:08:08;;;;;;;17.13;7.25;;;;;;;;;;5049986;28;20036;-68
2021/11/10 04:10:34;;;;;;;22.55;7.90;;;;;;;;;;5050232;28;20028;-68
2021/11/10 04:13:00;;;;;;;17.73;7.25;;;;;;;;;;5050730;28;20044;-68
2021/11/10 04:15:26;;;;;;;19.23;7.15;;;;;;;;;;5052938;28;20036;-68
2021/11/10 04:17:52;;;;;;;13.63;6.57;;;;;;;;;;5050158;28;20029;-68
2021/11/10 04:20:19;;;;;;;14.25;6.28;;;;;;;;;;5050109;28;20029;-68
2021/11/10 04:22:45;;;;;;;12.60;5.95;;;;;;;;;;5049605;28;20024;-68
2021/11/10 04:25:11;;;;;;;13.00;6.55;;;;;;;;;;5051282;28;20079;-68
2021/11/10 04:27:37;;;;;;;13.98;6.80;;;;;;;;;;5052707;28;20480;-68
2021/11/10 04:30:04;;;;;;;15.18;7.15;;;;;;;;;;5049777;28;20047;-68
2021/11/10 04:32:30;;;;;;;16.55;8.00;;;;;;;;;;5051306;28;20491;-67
2021/11/10 04:34:56;;;;;;;17.80;7.90;;;;;;;;;;5049242;28;20040;-68
2021/11/10 04:37:22;;;;;;;15.25;6.95;;;;;;;;;;5051706;28;20116;-68
2021/11/10 04:39:48;;;;;;;18.33;7.35;;;;;;;;;;5051617;28;20025;-68
2021/11/10 04:42:14;;;;;;;18.30;7.20;;;;;;;;;;5052755;28;20017;-68
2021/11/10 04:44:40;;;;;;;17.67;8.05;;;;;;;;;;5049699;28;20074;-68
2021/11/10 04:47:07;;;;;;;16.23;7.38;;;;;;;;;;5049351;28;20032;-66
2021/11/10 04:49:33;;;;;;;9.63;4.72;;;;;;;;;;5049475;28;20428;-68
2021/11/10 04:52:03;;;;;;;10.60;5.40;;;;;;;;;;5050106;28;20492;-70
2021/11/10 04:54:32;;;;;;;14.23;6.70;;;;;;;;;;5052724;28;20031;-70
2021/11/10 04:56:59;;;;;;;17.73;6.93;;;;;;;;;;5048603;28;20481;-69
2021/11/10 04:59:25;;;;;;;22.77;8.57;;;;;;;;;;5049475;28;20029;-69
2021/11/10 05:02:23;;;;;;;16.98;7.28;;;;;;;;;;5049293;28;20032;-69
2021/11/10 05:04:37;;;;;;;15.15;7.47;;;;;;;;;;5048964;28;20120;-69
2021/11/10 05:07:04;;;;;;;19.35;8.00;;;;;;;;;;5033459;28;20028;-67
2021/11/10 05:09:30;;;;;;;15.48;7.32;;;;;;;;;;5052590;28;20032;-69
2021/11/10 05:11:56;;;;;;;18.17;7.85;;;;;;;;;;5047315;28;20548;-70
2021/11/10 05:14:23;;;;;;;19.02;8.10;;;;;;;;;;5048391;28;20488;-69
2021/11/10 05:16:49;;;;;;;16.73;7.70;;;;;;;;;;5048933;28;20040;-69
2021/11/10 05:19:16;;;;;;;17.13;7.32;;;;;;;;;;5048693;28;20477;-69
2021/11/10 05:21:42;;;;;;;18.05;7.75;;;;;;;;;;5051468;28;20548;-69
2021/11/10 05:24:09;;;;;;;17.50;7.68;;;;;;;;;;5051520;28;20108;-69
2021/11/10 05:26:36;;;;;;;15.00;7.57;;;;;;;;;;5048334;28;20116;-69
2021/11/10 05:29:02;;;;;;;14.18;7.70;;;;;;;;;;5048198;28;20017;-69
2021/11/10 05:31:28;;;;;;;17.92;7.68;;;;;;;;;;5048978;28;20029;-68
2021/11/10 05:33:54;;;;;;;20.17;8.05;;;;;;;;;;5050284;28;20055;-68
2021/11/10 05:36:20;;;;;;;14.20;7.25;;;;;;;;;;5050626;28;20099;-69
2021/11/10 05:38:46;;;;;;;15.35;7.15;;;;;;;;;;5047951;28;20021;-68
2021/11/10 05:41:12;;;;;;;17.60;7.40;;;;;;;;;;5048410;28;20024;-68
2021/11/10 05:43:38;;;;;;;14.50;7.43;;;;;;;;;;5048835;28;20427;-68
2021/11/10 05:46:04;;;;;;;17.70;7.85;;;;;;;;;;5032972;28;20056;-68
2021/11/10 05:48:30;;;;;;;16.80;7.93;;;;;;;;;;5051791;28;20051;-69
2021/11/10 05:50:56;;;;;;;16.52;7.32;;;;;;;;;;5047295;28;20074;-69
2021/11/10 05:53:23;;;;;;;15.60;7.05;;;;;;;;;;5047791;28;20028;-67
2021/11/10 05:55:52;;;;;;;17.13;6.72;;;;;;;;;;5047936;28;20033;-67
2021/11/10 05:58:18;;;;;;;15.93;6.75;;;;;;;;;;5047173;28;20393;-67
2021/11/10 06:00:45;;;;;;;15.70;6.72;;;;;;;;;;5050528;28;20025;-67
2021/11/10 06:03:11;;;;;;;14.63;6.82;;;;;;;;;;5049654;28;20024;-68
2021/11/10 06:05:37;;;;;;;17.00;7.95;;;;;;;;;;5047983;28;20028;-68
2021/11/10 06:08:03;;;;;;;22.17;8.23;;;;;;;;;;5048039;28;20495;-68
2021/11/10 06:10:30;;;;;;;17.63;7.53;;;;;;;;;;5048076;28;20029;-68
2021/11/10 06:12:56;;;;;;;15.93;7.63;;;;;;;;;;5049712;28;20138;-68
2021/11/10 06:15:22;;;;;;;13.55;7.20;;;;;;;;;;5050007;28;20480;-68
2021/11/10 06:17:48;;;;;;;14.57;6.85;;;;;;;;;;5047869;28;20013;-71
2021/11/10 06:20:15;;;;;;;18.45;7.25;;;;;;;;;;5048047;28;20025;-71
2021/11/10 06:22:42;;;;;;;19.00;6.60;;;;;;;;;;5049582;28;20461;-71
2021/11/10 06:25:08;;;;;;;13.55;6.20;;;;;;;;;;5047746;28;20076;-71
2021/11/10 06:27:34;;;;;;;15.00;7.22;;;;;;;;;;5051310;28;20033;-71
2021/11/10 06:30:00;;;;;;;16.20;6.35;;;;;;;;;;5047823;28;20060;-71
2021/11/10 06:32:26;;;;;;;15.40;6.57;;;;;;;;;;5047869;28;20098;-71
2021/11/10 06:34:52;;;;;;;14.32;6.55;;;;;;;;;;5047143;28;20124;-72
2021/11/10 06:37:18;;;;;;;16.80;6.95;;;;;;;;;;5047427;28;20025;-71
2021/11/10 06:39:44;;;;;;;13.90;7.00;;;;;;;;;;5050039;28;20032;-72
2021/11/10 06:42:10;;;;;;;16.70;6.82;;;;;;;;;;5049146;28;20040;-72
2021/11/10 06:44:36;;;;;;;14.32;7.53;;;;;;;;;;5047660;28;20025;-71
2021/11/10 06:47:03;;;;;;;14.70;7.45;;;;;;;;;;5047584;28;20047;-71
2021/11/10 06:49:29;;;;;;;16.92;6.75;;;;;;;;;;5047893;28;20590;-71
2021/11/10 06:51:56;;;;;;;13.50;6.85;;;;;;;;;;5048565;28;20040;-67
2021/11/10 06:54:23;;;;;;;18.23;6.88;;;;;;;;;;5048536;28;20400;-67
2021/11/10 06:56:49;;;;;;;13.52;6.82;;;;;;;;;;5047798;28;20114;-66
2021/11/10 06:59:16;;;;;;;16.08;7.45;;;;;;;;;;5047414;28;20362;-67
2021/11/10 07:01:42;;;;;;;16.75;7.75;;;;;;;;;;5047725;28;20021;-66
2021/11/10 07:04:08;;;;;;;15.60;6.68;;;;;;;;;;5047848;28;20449;-67
2021/11/10 07:06:34;;;;;;;16.05;7.03;;;;;;;;;;5050681;28;20416;-67
2021/11/10 07:09:00;;;;;;;12.15;6.75;;;;;;;;;;5047142;28;20027;-66
2021/11/10 07:11:26;;;;;;;13.38;6.70;;;;;;;;;;5047276;28;20021;-67
2021/11/10 07:13:52;;;;;;;16.65;6.85;;;;;;;;;;5047507;28;20108;-67
2021/11/10 07:16:18;;;;;;;12.98;6.90;;;;;;;;;;5046366;28;20056;-67
2021/11/10 07:18:44;;;;;;;15.85;7.35;;;;;;;;;;5049542;28;20063;-67
2021/11/10 07:21:11;;;;;;;13.48;6.47;;;;;;;;;;5047030;28;20033;-67
2021/11/10 07:23:37;;;;;;;14.05;6.03;;;;;;;;;;5047423;28;20423;-67
2021/11/10 07:26:03;;;;;;;14.65;6.30;;;;;;;;;;5047438;28;20121;-67
2021/11/10 07:28:29;;;;;;;16.98;7.28;;;;;;;;;;5047579;28;20092;-67
2021/11/10 07:30:55;;;;;;;15.10;7.10;;;;;;;;;;5048568;28;20060;-67
2021/11/10 07:33:21;;;;;;;14.15;7.50;;;;;;;;;;5049026;28;20072;-66
2021/11/10 07:35:47;;;;;;;18.58;7.32;;;;;;;;;;5047413;28;20114;-67
2021/11/10 07:38:14;;;;;;;16.65;7.20;;;;;;;;;;5049068;28;20377;-68
2021/11/10 07:40:40;;;;;;;16.63;7.43;;;;;;;;;;5051906;28;20013;-67
2021/11/10 07:43:06;;;;;;;16.77;7.18;;;;;;;;;;5051009;28;20029;-68
2021/11/10 07:45:37;;;;;;;15.35;6.35;;;;;;;;;;5054322;28;20078;-67
2021/11/10 07:48:07;;;;;;;15.88;6.80;;;;;;;;;;5052822;28;20079;-68
2021/11/10 07:50:34;;;;;;;14.40;7.13;;;;;;;;;;5050300;28;20047;-69
2021/11/10 07:53:00;;;;;;;12.48;6.50;;;;;;;;;;5050509;28;20492;-68
2021/11/10 07:55:27;;;;;;;13.40;5.85;;;;;;;;;;5050197;28;20064;-68
2021/11/10 07:57:53;;;;;;;12.70;5.57;;;;;;;;;;5052598;28;20025;-68
2021/11/10 08:00:20;;;;;;;14.65;6.43;;;;;;;;;;5052468;28;20535;-68
2021/11/10 08:02:46;;;;;;;10.85;6.35;;;;;;;;;;5050597;28;20361;-68
2021/11/10 08:05:13;;;;;;;15.57;7.53;;;;;;;;;;5049390;28;20025;-68
2021/11/10 08:07:40;;;;;;;15.07;6.97;;;;;;;;;;5049974;28;20017;-68
2021/11/10 08:10:08;;;;;;;13.43;7.05;;;;;;;;;;5050738;28;20017;-68
2021/11/10 08:12:36;;;;;;;17.05;7.32;;;;;;;;;;5054129;28;20083;-67
2021/11/10 08:15:03;;;;;;;14.65;6.85;;;;;;;;;;5052225;28;20037;-67
2021/11/10 08:17:29;;;;;;;13.65;6.70;;;;;;;;;;5049949;28;20040;-67
2021/11/10 08:19:55;;;;;;;18.15;7.40;;;;;;;;;;5050902;28;20330;-67
2021/11/10 08:22:21;;;;;;;15.38;7.15;;;;;;;;;;5050215;28;20100;-67
2021/11/10 08:24:49;;;;;;;15.40;6.82;;;;;;;;;;5052547;28;20032;-67
2021/11/10 08:27:15;;;;;;;21.58;8.00;;;;;;;;;;5051005;28;20028;-67
2021/11/10 08:29:41;;;;;;;16.02;7.78;;;;;;;;;;5049600;28;20545;-67
2021/11/10 08:32:07;;;;;;;19.73;8.15;;;;;;;;;;5049987;28;20051;-67
2021/11/10 08:34:34;;;;;;;15.30;7.32;;;;;;;;;;5049539;28;20044;-67
2021/11/10 08:37:00;;;;;;;14.32;7.43;;;;;;;;;;5051227;28;20097;-67
2021/11/10 08:39:26;;;;;;;13.70;6.90;;;;;;;;;;5052220;28;20450;-67
2021/11/10 08:41:52;;;;;;;18.58;6.93;;;;;;;;;;5049379;28;20155;-67
2021/11/10 08:44:18;;;;;;;13.50;6.78;;;;;;;;;;5049352;28;20036;-67
2021/11/10 08:46:45;;;;;;;14.57;6.85;;;;;;;;;;5049647;28;20029;-67
2021/11/10 08:49:11;;;;;;;17.10;7.15;;;;;;;;;;5048413;28;20033;-67
2021/11/10 08:51:38;;;;;;;14.32;6.05;;;;;;;;;;5051881;28;20107;-67
2021/11/10 08:54:04;;;;;;;16.80;8.18;;;;;;;;;;5050021;28;20033;-67
2021/11/10 08:56:31;;;;;;;17.10;9.02;;;;;;;;;;5049352;28;20037;-67
2021/11/10 08:58:58;;;;;;;16.27;8.32;;;;;;;;;;5049144;28;20017;-67
2021/11/10 09:01:24;;;;;;;15.75;9.10;;;;;;;;;;5049539;28;20021;-67
2021/11/10 09:03:50;;;;;;;17.02;9.48;;;;;;;;;;5051196;28;20381;-67
2021/11/10 09:06:16;;;;;;;14.75;8.80;;;;;;;;;;5050443;28;20073;-67
2021/11/10 09:08:42;;;;;;;15.60;8.68;;;;;;;;;;5049267;28;20044;-67
2021/11/10 09:11:08;;;;;;;15.85;8.73;;;;;;;;;;5048692;28;20033;-67
2021/11/10 09:13:34;;;;;;;16.58;8.05;;;;;;;;;;5048775;28;20033;-67
2021/11/10 09:16:00;;;;;;;15.05;6.82;;;;;;;;;;5050166;28;20044;-67
2021/11/10 09:18:26;;;;;;;16.58;8.07;;;;;;;;;;5051653;28;20032;-67
2021/11/10 09:20:52;;;;;;;15.90;7.28;;;;;;;;;;5049365;28;20554;-67
2021/11/10 09:23:20;;;;;;;13.57;7.05;;;;;;;;;;5048212;28;20051;-67
2021/11/10 09:25:46;;;;;;;15.80;6.80;;;;;;;;;;5048804;28;20024;-67
2021/11/10 09:28:14;;;;;;;13.40;6.18;;;;;;;;;;5048891;28;20029;-67
2021/11/10 09:30:41;;;;;;;13.73;6.93;;;;;;;;;;5051769;28;20021;-67
2021/11/10 09:33:09;;;;;;;20.45;5.97;;;;;;;;;;5049540;28;20133;-67
2021/11/10 09:35:36;;;;;;;13.55;6.00;;;;;;;;;;5048821;28;20041;-67
2021/11/10 09:38:03;;;;;;;12.80;6.37;;;;;;;;;;5046750;28;20029;-67
2021/11/10 09:40:30;;;;;;;9.90;4.90;;;;;;;;;;5048721;28;20868;-67
2021/11/10 09:42:59;;;;;;;14.63;6.80;;;;;;;;;;5050019;28;20508;-69
2021/11/10 09:45:25;;;;;;;;;;;;;;;;;;5051720;28;20480;-67
2021/11/10 09:47:51;;;;;;;11.43;6.25;;;;;;;;;;5048049;28;19966;-67
2021/11/10 09:50:18;;;;;;;12.88;5.95;;;;;;;;;;5048023;28;20023;-67
2021/11/10 09:52:45;;;;;;;13.90;6.65;;;;;;;;;;5048374;28;20033;-67
2021/11/10 09:55:12;;;;;;;14.57;6.90;;;;;;;;;;5048335;28;20041;-67
2021/11/10 09:57:40;;;;;;;13.40;5.57;;;;;;;;;;5051541;28;20060;-67
2021/11/10 10:00:08;;;;;;;12.25;6.28;;;;;;;;;;5048200;28;20028;-67
2021/11/10 10:02:34;;;;;;;13.30;5.68;;;;;;;;;;5047940;28;20119;-67
2021/11/10 10:05:00;;;;;;;12.07;4.95;;;;;;;;;;5048364;28;20040;-67
2021/11/10 10:07:27;;;;;;;10.80;4.82;;;;;;;;;;5048369;28;20109;-67
2021/11/10 10:09:53;;;;;;;10.13;5.00;;;;;;;;;;5049646;28;20028;-67
2021/11/10 10:12:19;;;;;;;14.27;5.70;;;;;;;;;;5049654;28;20035;-67
2021/11/10 10:14:49;;;;;;;11.50;5.60;;;;;;;;;;5046988;28;20029;-67
2021/11/10 10:17:34;;;;;;;10.18;5.50;;;;;;;;;;5047896;28;20102;-67
2021/11/10 10:20:00;;;;;;;12.82;5.75;;;;;;;;;;5048124;28;20433;-67
2021/11/10 10:22:26;;;;;;;11.38;5.47;;;;;;;;;;5047675;28;20040;-67
2021/11/10 10:24:53;;;;;;;11.00;5.57;;;;;;;;;;5049893;28;20025;-67
2021/11/10 10:27:23;;;;;;;14.88;6.15;;;;;;;;;;5049899;28;20100;-67
2021/11/10 10:29:49;;;;;;;12.30;6.65;;;;;;;;;;5047996;28;20029;-68
2021/11/10 10:32:15;;;;;;;11.85;6.57;;;;;;;;;;5047714;28;20104;-67
2021/11/10 10:34:41;;;;;;;10.20;5.95;;;;;;;;;;5046126;28;20132;-67
2021/11/10 10:37:26;;;;;;;12.10;6.18;;;;;;;;;;5047579;28;20037;-67
2021/11/10 10:40:16;;;;;;;11.82;6.07;;;;;;;;;;5050086;28;20063;-67
2021/11/10 10:42:43;;;;;;;13.10;5.65;;;;;;;;;;5046741;28;20025;-67
2021/11/10 10:45:25;;;;;;;14.13;6.33;;;;;;;;;;5050171;28;20036;-67
2021/11/10 10:48:03;;;;;;;12.65;5.47;;;;;;;;;;5047735;28;20037;-68
2021/11/10 10:50:40;;;;;;;10.95;6.10;;;;;;;;;;5047881;28;20388;-67
2021/11/10 10:53:07;;;;;;;12.40;6.55;;;;;;;;;;5047888;28;20024;-67
2021/11/10 10:55:41;;;;;;;13.00;6.07;;;;;;;;;;5048710;28;20075;-67
2021/11/10 10:58:08;;;;;;;11.38;5.90;;;;;;;;;;5032189;28;20013;-67
2021/11/10 11:00:36;;;;;;;15.25;6.45;;;;;;;;;;5050823;28;20075;-68
2021/11/10 11:03:26;;;;;;;14.45;6.28;;;;;;;;;;5049541;28;20120;-68
2021/11/10 11:05:52;;;;;;;13.32;5.65;;;;;;;;;;5045472;28;20049;-64
2021/11/10 11:08:25;;;;;;;11.90;6.43;;;;;;;;;;5046453;28;20078;-65
2021/11/10 11:10:51;;;;;;;11.65;7.10;;;;;;;;;;5047340;28;20407;-64
2021/11/10 11:13:20;;;;;;;13.77;6.25;;;;;;;;;;5049688;28;20026;-65
2021/11/10 11:16:03;;;;;;;14.95;6.57;;;;;;;;;;5053527;28;20133;-66
2021/11/10 11:18:29;;;;;;;13.23;6.70;;;;;;;;;;5054487;28;20079;-65
2021/11/10 11:20:55;;;;;;;12.32;7.00;;;;;;;;;;5050892;28;20025;-66
2021/11/10 11:23:21;;;;;;;13.48;7.53;;;;;;;;;;5051147;28;20090;-65
2021/11/10 11:25:47;;;;;;;11.05;6.55;;;;;;;;;;5050450;28;20029;-66
2021/11/10 11:28:14;;;;;;;15.23;6.85;;;;;;;;;;5049108;28;20104;-63
2021/11/10 11:30:42;;;;;;;13.57;6.75;;;;;;;;;;5052526;28;20028;-63
2021/11/10 11:33:09;;;;;;;12.40;6.13;;;;;;;;;;5051373;28;20037;-63
2021/11/10 11:35:39;;;;;;;19.65;6.53;;;;;;;;;;5052140;28;20400;-62
2021/11/10 11:38:05;;;;;;;12.65;6.10;;;;;;;;;;5052713;28;20048;-63
2021/11/10 11:40:33;;;;;;;11.55;5.85;;;;;;;;;;5052447;28;20126;-63
2021/11/10 11:43:00;;;;;;;11.32;6.50;;;;;;;;;;5051525;28;20180;-63
2021/11/10 11:45:27;;;;;;;12.60;5.80;;;;;;;;;;5050138;28;20033;-63
2021/11/10 11:47:54;;;;;;;13.13;6.18;;;;;;;;;;5045913;28;20481;-63
2021/11/10 11:50:21;;;;;;;10.00;5.83;;;;;;;;;;5043329;28;20033;-63
2021/11/10 11:52:50;;;;;;;16.92;6.80;;;;;;;;;;5049399;28;20262;-63
2021/11/10 11:55:21;;;;;;;14.70;6.32;;;;;;;;;;5050426;28;20045;-63
2021/11/10 11:57:48;;;;;;;14.13;6.85;;;;;;;;;;5052437;28;20032;-65
2021/11/10 12:00:16;;;;;;;12.05;6.22;;;;;;;;;;5051300;28;20024;-63
2021/11/10 12:02:46;;;;;;;13.85;6.25;;;;;;;;;;5046891;28;20013;-64
2021/11/10 12:05:21;;;;;;;13.93;6.28;;;;;;;;;;5049235;28;20124;-62
2021/11/10 12:07:49;;;;;;;10.82;5.70;;;;;;;;;;5049882;28;20115;-63
2021/11/10 12:10:21;;;;;;;11.43;6.35;;;;;;;;;;5050210;28;20018;-63
2021/11/10 12:12:48;;;;;;;13.55;5.32;;;;;;;;;;5034815;28;20499;-63
2021/11/10 12:15:15;;;;;;;15.75;6.18;;;;;;;;;;5059911;28;20036;-63
2021/11/10 12:17:59;;;;;;;12.43;5.70;;;;;;;;;;5052389;28;20033;-63
2021/11/10 12:20:35;;;;;;;11.88;5.63;;;;;;;;;;5048170;28;20120;-64
2021/11/10 12:23:01;;;;;;;13.25;5.43;;;;;;;;;;5035327;28;20403;-63
2021/11/10 12:25:27;;;;;;;13.90;5.07;;;;;;;;;;5051944;28;20502;-62
2021/11/10 12:27:53;;;;;;;10.35;6.07;;;;;;;;;;5050150;28;20021;-63
2021/11/10 12:30:27;;;;;;;12.43;6.57;;;;;;;;;;5049873;28;20044;-62
2021/11/10 12:32:53;;;;;;;13.48;5.90;;;;;;;;;;5047063;28;20052;-63
2021/11/10 12:35:27;;;;;;;14.05;6.60;;;;;;;;;;5041262;28;20063;-63
2021/11/10 12:37:55;;;;;;;13.48;6.13;;;;;;;;;;5043339;28;20021;-63
2021/11/10 12:40:24;;;;;;;13.88;6.68;;;;;;;;;;5048532;28;20040;-63
2021/11/10 12:42:51;;;;;;;13.02;6.15;;;;;;;;;;5045500;28;20025;-63
2021/11/10 12:45:22;;;;;;;15.60;6.22;;;;;;;;;;5044615;28;20021;-63
2021/11/10 12:47:49;;;;;;;10.57;4.40;;;;;;;;;;5047285;28;20047;-63
2021/11/10 12:50:18;;;;;;;10.77;4.28;;;;;;;;;;5038645;28;20025;-62
2021/11/10 12:52:45;;;;;;;11.35;4.10;;;;;;;;;;5047609;28;20025;-62
2021/11/10 12:55:13;;;;;;;9.05;4.15;;;;;;;;;;5056786;28;20071;-62
2021/11/10 12:57:39;;;;;;;10.00;3.67;;;;;;;;;;5050823;28;20026;-62
2021/11/10 13:00:05;;;;;;;9.52;4.18;;;;;;;;;;5044566;28;20498;-62
2021/11/10 13:02:32;;;;;;;8.95;4.38;;;;;;;;;;5043481;28;20021;-63
2021/11/10 13:05:01;;;;;;;10.07;4.07;;;;;;;;;;5050059;28;20481;-62
2021/11/10 13:07:32;;;;;;;9.25;4.03;;;;;;;;;;5047188;28;20021;-62
2021/11/10 13:10:11;;;;;;;11.75;4.32;;;;;;;;;;5050307;28;20032;-62
2021/11/10 13:12:40;;;;;;;10.75;4.88;;;;;;;;;;5037034;28;20049;-62
2021/11/10 13:15:06;;;;;;;9.98;4.40;;;;;;;;;;5051269;28;20048;-62
2021/11/10 13:17:33;;;;;;;11.02;4.18;;;;;;;;;;5048216;28;20020;-62
2021/11/10 13:20:01;;;;;;;8.80;4.43;;;;;;;;;;5048713;28;20052;-65
2021/11/10 13:22:40;;;;;;;9.20;4.05;;;;;;;;;;5049091;28;20033;-65
2021/11/10 13:25:09;;;;;;;11.57;5.38;;;;;;;;;;5033199;28;20029;-65
2021/11/10 13:27:34;;;;;;;9.02;4.70;;;;;;;;;;5052703;28;20483;-65
2021/11/10 13:30:01;;;;;;;8.90;4.15;;;;;;;;;;5048736;28;20032;-65
2021/11/10 13:32:29;;;;;;;10.27;4.75;;;;;;;;;;5048358;28;20032;-65
2021/11/10 13:35:00;;;;;;;10.70;4.70;;;;;;;;;;5048120;28;20544;-65
2021/11/10 13:37:38;;;;;;;13.20;4.95;;;;;;;;;;5048938;28;20055;-66
2021/11/10 13:40:04;;;;;;;11.40;4.88;;;;;;;;;;5047862;28;20028;-67
2021/11/10 13:42:30;;;;;;;11.95;4.90;;;;;;;;;;5051891;28;20052;-67
2021/11/10 13:45:11;;;;;;;11.23;5.53;;;;;;;;;;5047679;28;20385;-67
2021/11/10 13:47:37;;;;;;;12.35;5.38;;;;;;;;;;5048628;28;20033;-71
2021/11/10 13:50:04;;;;;;;10.90;5.43;;;;;;;;;;5048517;28;20405;-63
2021/11/10 13:52:31;;;;;;;10.33;4.80;;;;;;;;;;5048465;28;20096;-63
2021/11/10 13:55:01;;;;;;;12.20;4.60;;;;;;;;;;5049626;28;20037;-63
2021/11/10 13:57:32;;;;;;;11.35;4.68;;;;;;;;;;5050759;28;20029;-63
2021/11/10 13:59:59;;;;;;;14.25;5.53;;;;;;;;;;5048257;28;20519;-63
2021/11/10 14:02:33;;;;;;;16.25;5.20;;;;;;;;;;5048335;28;20033;-63
2021/11/10 14:05:00;;;;;;;10.82;4.90;;;;;;;;;;5048366;28;20021;-63
2021/11/10 14:07:27;;;;;;;12.65;6.68;;;;;;;;;;5047734;28;20072;-63
2021/11/10 14:10:07;;;;;;;17.33;7.78;;;;;;;;;;5047766;28;20503;-63
2021/11/10 14:12:36;;;;;;;19.10;7.38;;;;;;;;;;5051863;28;20683;-63
2021/11/10 14:15:02;;;;;;;;;;;;;;;;;;5048583;28;20052;-63
2021/11/10 14:17:28;;;;;;;13.27;6.90;;;;;;;;;;5048123;28;19913;-63
2021/11/10 14:19:55;;;;;;;7.85;4.65;;;;;;;;;;5047097;28;20033;-63
2021/11/10 14:22:22;;;;;;;11.10;5.63;;;;;;;;;;5049271;28;20155;-63
2021/11/10 14:24:48;;;;;;;15.38;5.57;;;;;;;;;;5050446;28;20029;-63
2021/11/10 14:27:14;;;;;;;12.13;5.90;;;;;;;;;;5048970;28;20029;-63
2021/11/10 14:29:40;;;;;;;13.85;6.00;;;;;;;;;;5047884;28;20493;-64